Terminal Aerodrome Forecast
Issued by NWS Huntsville, AL

Home | Current Version | Previous Version | Text Only | Print | Product List | Glossary On
Versions: 1 2 3 4 5 6 7 8 9 10 11 12 13 14 15 16 17 18 19 20 21 22 23 24 25 26 27 28 29 30 31 32 33
769
FTUS44 KHUN 030703 AAA
TAFMSL
TAF AMD
KMSL 030703Z 0307/0406 32005KT P6SM SCT030 BKN040
      TEMPO 0307/0311 5SM BR
     FM031100 32005KT 6SM BR BKN020 OVC250
     FM031500 30008KT P6SM SCT025 BKN080
     FM040200 34003KT P6SM BKN120=

USA.gov is the U.S. government's official web portal to all federal, state and local government web resources and services.